This is the latest recevied weather packets stored in our database for station/object K7NDG. If no packets are shown the sender has not sent any weather packets the latest 10 day(s).
| Time | Temp. | Humidity | Pressure | Rain* | Wind** | Luminosity | Snow |
|---|---|---|---|---|---|---|---|
| 1777693087 | 11.67° C | 82% | 1017.6 hPa | 0 mm | - | 0 W/m² | - |
| 1777692784 | 11.67° C | 82% | 1017.5 hPa | 0 mm | - | 0 W/m² | - |
| 1777692481 | 12.22° C | 82% | 1017.4 hPa | 0 mm | - | 0 W/m² | - |
| 1777692177 | 12.22° C | 81% | 1017.4 hPa | 0 mm | - | 0 W/m² | - |
| 1777691875 | 12.22° C | 81% | 1017.3 hPa | 0 mm | - | 1 W/m² | - |
| 1777691573 | 12.22° C | 81% | 1017.3 hPa | 0 mm | - | 5 W/m² | - |
| 1777691271 | 12.22° C | 81% | 1017 hPa | 0 mm | - | 7 W/m² | - |
| 1777690969 | 12.22° C | 81% | 1017.3 hPa | 0 mm | - | 10 W/m² | - |
| 1777690666 | 12.22° C | 81% | 1017.2 hPa | 0 mm | - | 11 W/m² | - |
| 1777690364 | 12.78° C | 80% | 1017.3 hPa | 0 mm | - | 17 W/m² | - |
| 1777690061 | 12.78° C | 80% | 1017.2 hPa | 0 mm | - | 20 W/m² | - |
| 1777689759 | 12.78° C | 80% | 1017.1 hPa | 0 mm | - | 23 W/m² | - |
| 1777689457 | 12.78° C | 80% | 1017.1 hPa | 0 mm | - | 26 W/m² | - |
| 1777688852 | 12.78° C | 80% | 1016.9 hPa | 0 mm | - | 34 W/m² | - |
| 1777688548 | 12.78° C | 79% | 1017.2 hPa | 0 mm | - | 39 W/m² | - |
| 1777688245 | 13.33° C | 79% | 1017.1 hPa | 0 mm | - | 39 W/m² | - |
| 1777671879 | 18.89° C | 67% | 1017.3 hPa | 0 mm | - | 645 W/m² | - |
| 1777670967 | 19.44° C | 66% | 1017.5 hPa | 0 mm | - | 640 W/m² | - |
| 1777670059 | 19.44° C | 65% | 1017.5 hPa | 0 mm | - | 437 W/m² | - |
| 1777669149 | 20° C | 65% | 1017.7 hPa | 0 mm | - | 618 W/m² | - |
| 1777666116 | 20° C | 64% | 1017.8 hPa | 0 mm | - | 552 W/m² | - |
| 1777665814 | 19.44° C | 66% | 1017.8 hPa | 0 mm | - | 504 W/m² | - |
| 1777664600 | 18.33° C | 67% | 1017.6 hPa | 0 mm | - | 643 W/m² | - |
| 1777664296 | 18.33° C | 65% | 1017.9 hPa | 0 mm | - | 394 W/m² | - |
| 1777663995 | 18.33° C | 68% | 1018 hPa | 0 mm | - | 584 W/m² | - |
* Rain latest hour (hover to see other rain measurements)
** Current wind speed in m/s (hover to see current wind gust speed)